Time;durP1;ratioP1;P1;durP2;ratioP2;P2;SDS_P1;SDS_P2;PMS_P1;PMS_P2;Temp;Humidity;BMP_temperature;BMP_pressure;BME280_temperature;BME280_humidity;BME280_pressure;Samples;Min_cycle;Max_cycle;Signal;HPM_P1;HPM_P2
2023/01/29 00:02:23;;;;;;;29.13;13.57;;;-5.70;99.90;;;;;;5113311;28;20039;-64
2023/01/29 00:04:49;;;;;;;26.92;12.98;;;-5.70;99.90;;;;;;5096291;28;20118;-64
2023/01/29 00:07:15;;;;;;;30.13;13.48;;;-5.70;99.90;;;;;;5097607;28;20043;-64
2023/01/29 00:09:41;;;;;;;27.20;12.75;;;-5.60;99.90;;;;;;5116978;27;20035;-65
2023/01/29 00:12:07;;;;;;;27.35;12.00;;;-5.60;99.90;;;;;;5118176;27;20095;-65
2023/01/29 00:14:34;;;;;;;31.83;12.77;;;-5.60;99.90;;;;;;5116090;28;20030;-65
2023/01/29 00:17:00;;;;;;;25.70;12.35;;;-5.70;99.90;;;;;;5111456;27;20052;-65
2023/01/29 00:19:26;;;;;;;24.90;12.00;;;-5.60;99.90;;;;;;5084496;28;20129;-65
2023/01/29 00:21:51;;;;;;;25.73;11.90;;;-5.60;99.90;;;;;;5102499;28;20502;-65
2023/01/29 00:24:17;;;;;;;26.05;12.73;;;-5.70;99.90;;;;;;5082277;28;20561;-65
2023/01/29 00:26:43;;;;;;;27.95;11.82;;;-5.70;99.90;;;;;;5103248;27;20050;-65
2023/01/29 00:29:08;;;;;;;24.98;11.35;;;-5.70;99.90;;;;;;5105070;28;20111;-65
2023/01/29 00:31:34;;;;;;;26.73;11.82;;;-5.70;99.90;;;;;;5103555;28;20100;-65
2023/01/29 00:33:59;;;;;;;25.60;10.80;;;-5.80;99.90;;;;;;5105699;28;20062;-65
2023/01/29 00:36:26;;;;;;;25.45;11.70;;;-5.80;99.90;;;;;;5104655;28;20043;-65
2023/01/29 00:38:57;;;;;;;25.60;11.57;;;-5.80;99.90;;;;;;5083777;28;20104;-65
2023/01/29 00:46:55;;;;;;;22.67;10.90;;;-5.90;99.90;;;;;;5103858;28;20043;-65
2023/01/29 00:49:21;;;;;;;26.25;11.60;;;-5.90;99.90;;;;;;5103239;28;20050;-65
2023/01/29 00:52:22;;;;;;;23.80;10.90;;;-5.80;99.90;;;;;;5104596;28;20126;-65
2023/01/29 00:54:33;;;;;;;23.85;10.35;;;-5.80;99.90;;;;;;5104841;28;20487;-65
2023/01/29 00:56:58;;;;;;;21.60;11.10;;;-5.90;99.90;;;;;;5105122;28;20051;-65
2023/01/29 00:59:24;;;;;;;26.25;10.68;;;-5.90;99.90;;;;;;5103815;28;20118;-65
2023/01/29 01:04:34;;;;;;;20.77;9.48;;;-5.90;99.90;;;;;;5083497;28;20040;-65
2023/01/29 01:06:59;;;;;;;17.23;9.00;;;-5.90;99.90;;;;;;5083531;28;20043;-65
2023/01/29 01:12:09;;;;;;;18.33;8.52;;;-5.90;99.90;;;;;;5082679;28;20555;-65
2023/01/29 01:14:35;;;;;;;16.65;8.63;;;-5.90;99.90;;;;;;5081059;28;20035;-65
2023/01/29 01:17:00;;;;;;;20.08;8.68;;;-6.00;99.90;;;;;;5083356;28;20180;-65
2023/01/29 01:19:26;;;;;;;19.20;8.20;;;-6.10;99.90;;;;;;5083437;28;20056;-65
2023/01/29 01:21:52;;;;;;;20.08;8.95;;;-6.10;99.90;;;;;;5083703;28;20446;-65
2023/01/29 01:24:19;;;;;;;22.17;8.10;;;-6.10;99.90;;;;;;5079623;28;20054;-65
2023/01/29 01:26:45;;;;;;;17.20;8.25;;;-6.00;99.90;;;;;;5081891;28;20138;-65
2023/01/29 01:29:11;;;;;;;16.02;7.25;;;-6.10;99.90;;;;;;5080669;28;20066;-65
2023/01/29 01:31:36;;;;;;;16.98;8.10;;;-6.00;99.90;;;;;;5082484;28;20112;-65
2023/01/29 01:34:02;;;;;;;18.05;8.05;;;-6.10;99.90;;;;;;5081078;28;20082;-65
2023/01/29 01:36:28;;;;;;;15.00;7.22;;;-6.10;99.90;;;;;;5082687;28;20047;-65
2023/01/29 01:38:53;;;;;;;14.10;6.72;;;-6.10;99.90;;;;;;5081846;28;20036;-65
2023/01/29 01:41:21;;;;;;;17.90;8.40;;;-6.20;99.90;;;;;;5082104;28;20586;-65
2023/01/29 01:43:52;;;;;;;16.45;7.45;;;-6.20;99.90;;;;;;5082089;28;20047;-66
2023/01/29 01:46:17;;;;;;;16.23;6.90;;;-6.10;99.90;;;;;;5079369;28;20084;-65
2023/01/29 01:48:46;;;;;;;18.05;8.23;;;-6.20;99.90;;;;;;5081389;28;20048;-65
2023/01/29 01:51:13;;;;;;;17.65;7.53;;;-6.10;99.90;;;;;;5082471;28;20044;-65
2023/01/29 01:53:49;;;;;;;17.67;7.15;;;-6.10;99.90;;;;;;5083231;28;20036;-65
2023/01/29 01:56:20;;;;;;;15.88;7.07;;;-6.00;99.90;;;;;;5082452;28;20495;-65
2023/01/29 01:58:50;;;;;;;15.70;6.72;;;-6.00;99.90;;;;;;5074144;28;20036;-65
2023/01/29 02:01:17;;;;;;;14.02;6.72;;;-5.90;99.90;;;;;;5069600;28;20072;-65
2023/01/29 02:09:37;;;;;;;13.35;5.63;;;-5.60;99.90;;;;;;5081553;28;20040;-65
2023/01/29 02:12:09;;;;;;;10.77;4.57;;;-5.50;99.90;;;;;;5082589;28;20052;-65
2023/01/29 02:14:38;;;;;;;11.05;4.80;;;-5.50;99.90;;;;;;5080193;28;20027;-65
2023/01/29 02:17:05;;;;;;;10.73;4.35;;;-5.50;99.90;;;;;;5080448;28;20093;-65
2023/01/29 02:19:36;;;;;;;11.60;4.90;;;-5.40;99.90;;;;;;5082512;28;20328;-65
2023/01/29 02:22:31;;;;;;;11.55;5.50;;;-5.50;99.90;;;;;;5082495;28;20032;-65
2023/01/29 02:25:18;;;;;;;11.07;5.20;;;-5.40;99.90;;;;;;5082791;28;20032;-65
2023/01/29 02:28:12;;;;;;;10.50;5.15;;;-5.50;99.90;;;;;;5081823;28;20079;-66
2023/01/29 02:30:49;;;;;;;9.88;4.25;;;-5.50;99.90;;;;;;5064353;28;20040;-66
2023/01/29 02:33:41;;;;;;;10.32;5.28;;;-5.60;99.90;;;;;;5082802;28;20036;-65
2023/01/29 02:36:22;;;;;;;9.52;4.95;;;-5.70;99.90;;;;;;5078468;28;20137;-65
2023/01/29 02:39:13;;;;;;;11.15;4.85;;;-5.70;99.90;;;;;;5082920;28;20047;-65
2023/01/29 02:41:45;;;;;;;14.23;5.32;;;-5.80;99.90;;;;;;5064354;28;20036;-65
2023/01/29 02:44:32;;;;;;;11.18;4.78;;;-5.80;99.90;;;;;;5081263;28;20036;-65
2023/01/29 02:47:18;;;;;;;13.93;4.65;;;-5.90;99.90;;;;;;5082218;28;20265;-65
2023/01/29 02:49:58;;;;;;;16.80;5.47;;;-5.90;99.90;;;;;;5082296;28;20040;-65
2023/01/29 02:52:37;;;;;;;10.45;5.07;;;-6.00;99.90;;;;;;5082219;28;20234;-65
2023/01/29 02:55:33;;;;;;;11.13;4.53;;;-6.00;99.90;;;;;;5081172;28;20047;-65
2023/01/29 02:58:03;;;;;;;;;;;-6.00;99.90;;;;;;5081476;28;20036;-65
2023/01/29 03:00:38;;;;;;;17.55;5.57;;;-6.00;99.90;;;;;;5079890;28;19924;-65
2023/01/29 03:03:12;;;;;;;12.77;5.00;;;-6.00;99.90;;;;;;5081076;28;20043;-65
2023/01/29 03:05:44;;;;;;;11.43;4.80;;;-6.00;99.90;;;;;;5079552;28;20075;-64
2023/01/29 03:08:15;;;;;;;11.15;5.47;;;-6.00;99.90;;;;;;5080548;28;20066;-64
2023/01/29 03:10:51;;;;;;;10.75;4.72;;;-6.00;99.90;;;;;;5082510;28;20056;-64
2023/01/29 03:13:28;;;;;;;12.60;5.47;;;-5.90;99.90;;;;;;5080408;28;20499;-64
2023/01/29 03:16:02;;;;;;;9.05;4.85;;;-6.00;99.90;;;;;;5079920;28;20042;-64
2023/01/29 03:18:40;;;;;;;8.95;4.18;;;-6.00;99.90;;;;;;5080744;28;20050;-64
2023/01/29 03:32:18;;;;;;;12.55;4.68;;;-6.00;99.90;;;;;;5080752;28;20040;-64
2023/01/29 03:34:50;;;;;;;10.05;4.70;;;-6.10;99.90;;;;;;5080394;28;20043;-64
2023/01/29 03:37:37;;;;;;;9.55;4.43;;;-6.10;99.90;;;;;;5076949;28;20411;-64
2023/01/29 03:40:04;;;;;;;16.15;4.93;;;-6.10;99.90;;;;;;5079943;28;20028;-64
2023/01/29 03:42:54;;;;;;;10.35;4.35;;;-6.10;99.90;;;;;;5081711;28;20047;-64
2023/01/29 03:45:41;;;;;;;11.73;5.00;;;-6.10;99.90;;;;;;5080153;28;20116;-64
2023/01/29 03:48:13;;;;;;;8.23;4.05;;;-6.10;99.90;;;;;;5081009;28;20035;-64
2023/01/29 03:51:10;;;;;;;8.13;3.92;;;-6.10;99.90;;;;;;5081733;28;20047;-64
2023/01/29 03:53:48;;;;;;;12.45;4.70;;;-6.10;99.90;;;;;;5082705;28;20031;-64
2023/01/29 03:56:44;;;;;;;10.27;4.43;;;-6.10;99.90;;;;;;5084937;28;20055;-64
2023/01/29 03:59:30;;;;;;;7.90;3.50;;;-6.10;99.90;;;;;;5084470;28;20039;-64
2023/01/29 04:02:03;;;;;;;13.98;4.78;;;-6.10;99.90;;;;;;5084137;28;20031;-64
2023/01/29 04:04:32;;;;;;;8.85;3.90;;;-6.10;99.90;;;;;;5082056;28;20516;-64
2023/01/29 04:07:15;;;;;;;9.50;4.75;;;-6.10;99.90;;;;;;5083809;28;20123;-64
2023/01/29 04:09:44;;;;;;;8.25;4.00;;;-6.10;99.90;;;;;;5085162;28;20068;-64
2023/01/29 04:12:12;;;;;;;8.52;4.13;;;-6.10;99.90;;;;;;5084632;28;20036;-64
2023/01/29 04:14:38;;;;;;;13.98;4.95;;;-6.10;99.90;;;;;;5083272;28;20506;-64
2023/01/29 04:17:20;;;;;;;9.82;4.13;;;-6.10;99.90;;;;;;5084176;28;20039;-64
2023/01/29 04:19:46;;;;;;;12.40;4.75;;;-6.10;99.90;;;;;;5085644;28;20047;-64
2023/01/29 04:22:16;;;;;;;14.02;5.18;;;-6.10;99.90;;;;;;5084612;28;20040;-64
2023/01/29 04:24:42;;;;;;;12.90;5.07;;;-6.10;99.90;;;;;;5069597;28;20032;-65
2023/01/29 04:27:24;;;;;;;17.85;4.57;;;-6.20;99.90;;;;;;5082805;28;20052;-65
2023/01/29 04:30:14;;;;;;;15.15;5.43;;;-6.20;99.90;;;;;;5084220;28;20028;-63
2023/01/29 04:32:59;;;;;;;13.25;5.03;;;-6.10;99.90;;;;;;5084125;28;20051;-64
2023/01/29 04:35:48;;;;;;;11.50;4.78;;;-6.10;99.90;;;;;;5083637;28;20040;-65
2023/01/29 04:38:32;;;;;;;18.45;5.35;;;-6.10;99.90;;;;;;5086363;28;20044;-65
2023/01/29 04:41:10;;;;;;;10.00;3.90;;;-6.10;99.90;;;;;;5085464;28;20097;-64
2023/01/29 04:43:54;;;;;;;12.00;4.60;;;-6.10;99.90;;;;;;5083638;28;20040;-64
2023/01/29 04:46:51;;;;;;;9.73;4.80;;;-6.10;99.90;;;;;;5083249;28;20377;-64
2023/01/29 04:49:22;;;;;;;;;;;-6.10;99.90;;;;;;5082845;28;20051;-65
2023/01/29 04:52:00;;;;;;;13.70;4.85;;;-6.10;99.90;;;;;;5084418;28;19916;-65
2023/01/29 04:54:48;;;;;;;13.77;4.95;;;-6.10;99.90;;;;;;5083430;28;20036;-65
2023/01/29 04:57:28;;;;;;;11.23;4.65;;;-6.10;99.90;;;;;;5084896;28;20063;-65
2023/01/29 05:00:02;;;;;;;11.02;4.32;;;-6.10;99.90;;;;;;5083528;28;20036;-64
2023/01/29 05:02:30;;;;;;;10.95;4.65;;;-6.10;99.90;;;;;;5082092;28;20040;-64
2023/01/29 05:04:57;;;;;;;11.75;5.60;;;-6.10;99.90;;;;;;5081649;28;20040;-64
2023/01/29 05:07:25;;;;;;;11.48;4.28;;;-6.10;99.90;;;;;;5083688;28;20044;-65
2023/01/29 05:09:52;;;;;;;9.57;4.15;;;-6.10;99.90;;;;;;5083352;28;20039;-66
2023/01/29 05:12:18;;;;;;;12.25;4.22;;;-6.00;99.90;;;;;;5082305;28;20552;-65
2023/01/29 05:14:45;;;;;;;10.07;4.43;;;-6.00;99.90;;;;;;5080146;28;20035;-65
2023/01/29 05:17:15;;;;;;;11.52;4.82;;;-5.90;99.90;;;;;;5082076;28;20047;-65
2023/01/29 05:19:41;;;;;;;10.60;5.03;;;-5.90;99.90;;;;;;5085362;28;20040;-65
2023/01/29 05:22:11;;;;;;;12.82;4.72;;;-5.90;99.90;;;;;;5084464;28;20085;-65
2023/01/29 05:24:36;;;;;;;10.35;5.65;;;-5.90;99.90;;;;;;5083198;28;20036;-65
2023/01/29 05:29:47;;;;;;;10.15;4.82;;;-5.90;99.90;;;;;;5084129;28;20050;-65
2023/01/29 05:32:14;;;;;;;11.10;4.43;;;-5.80;99.90;;;;;;5081775;28;20066;-65
2023/01/29 05:34:39;;;;;;;10.93;4.20;;;-5.70;99.90;;;;;;5082722;28;20051;-65
2023/01/29 05:37:05;;;;;;;9.48;4.10;;;-5.60;99.90;;;;;;5084146;28;20044;-65
2023/01/29 05:39:31;;;;;;;12.90;4.40;;;-5.60;99.90;;;;;;5082317;28;20032;-64
2023/01/29 05:41:56;;;;;;;9.20;4.68;;;-5.60;99.90;;;;;;5083536;28;20074;-65
2023/01/29 05:44:22;;;;;;;11.60;5.00;;;-5.60;99.90;;;;;;5083405;28;20044;-64
2023/01/29 05:46:49;;;;;;;12.85;4.28;;;-5.60;99.90;;;;;;5083427;28;20046;-65
2023/01/29 05:49:19;;;;;;;10.88;4.15;;;-5.60;99.90;;;;;;5082953;28;20063;-64
2023/01/29 05:51:45;;;;;;;9.20;3.55;;;-5.60;99.90;;;;;;5083282;28;20081;-65
2023/01/29 05:54:11;;;;;;;7.32;3.50;;;-5.60;99.90;;;;;;5082597;28;20426;-65
2023/01/29 05:56:38;;;;;;;9.13;3.63;;;-5.70;99.90;;;;;;5083252;28;20425;-64
2023/01/29 05:59:04;;;;;;;8.48;4.03;;;-5.70;99.90;;;;;;5080138;28;20472;-64
2023/01/29 06:01:29;;;;;;;10.10;4.40;;;-5.70;99.90;;;;;;5081161;28;20123;-64
2023/01/29 06:03:55;;;;;;;7.88;3.45;;;-5.70;99.90;;;;;;5083118;28;20036;-65
2023/01/29 06:06:20;;;;;;;7.53;3.85;;;-5.70;99.90;;;;;;5082317;28;20040;-65
2023/01/29 06:08:46;;;;;;;7.90;3.85;;;-5.70;99.90;;;;;;5081879;28;20067;-65
2023/01/29 06:11:13;;;;;;;13.13;4.30;;;-5.70;99.90;;;;;;5082515;28;20115;-65
2023/01/29 06:13:39;;;;;;;10.63;4.55;;;-5.70;99.90;;;;;;5084487;28;20044;-65
2023/01/29 06:16:06;;;;;;;8.15;3.78;;;-5.70;99.90;;;;;;5077302;28;20028;-65
2023/01/29 06:18:32;;;;;;;12.02;4.15;;;-5.70;99.90;;;;;;5081390;28;20044;-65
2023/01/29 06:21:05;;;;;;;9.48;4.32;;;-5.70;99.90;;;;;;5081027;28;20032;-65
2023/01/29 06:23:32;;;;;;;8.38;3.58;;;-5.70;99.90;;;;;;5082198;28;20039;-64
2023/01/29 06:26:05;;;;;;;10.00;3.80;;;-5.70;99.90;;;;;;5081948;28;20032;-65
2023/01/29 06:28:31;;;;;;;10.68;4.75;;;-5.70;99.90;;;;;;5081488;28;20068;-64
2023/01/29 06:30:59;;;;;;;11.45;4.03;;;-5.70;99.90;;;;;;5081897;28;20141;-64
2023/01/29 06:33:25;;;;;;;12.23;4.95;;;-5.70;99.90;;;;;;5081034;28;20084;-65
2023/01/29 06:36:02;;;;;;;7.43;3.78;;;-5.60;99.90;;;;;;5084918;28;20044;-65
2023/01/29 06:38:28;;;;;;;10.50;4.15;;;-5.50;99.90;;;;;;5081785;28;20530;-65
2023/01/29 06:40:54;;;;;;;10.50;3.85;;;-5.40;99.90;;;;;;5081070;28;20665;-64
2023/01/29 06:43:20;;;;;;;11.00;3.88;;;-5.40;99.90;;;;;;5081615;28;20535;-64
2023/01/29 06:45:54;;;;;;;7.18;3.58;;;-5.30;99.90;;;;;;5080344;28;20043;-65
2023/01/29 06:48:20;;;;;;;10.75;4.35;;;-5.20;99.90;;;;;;5080653;28;20032;-64
2023/01/29 06:50:48;;;;;;;12.52;4.40;;;-5.20;99.90;;;;;;5080899;28;20032;-62
2023/01/29 06:53:14;;;;;;;12.52;5.47;;;-5.00;99.90;;;;;;5080815;28;20051;-62
2023/01/29 06:55:40;;;;;;;12.23;5.22;;;-4.90;99.90;;;;;;5081487;28;20438;-61
2023/01/29 06:58:07;;;;;;;15.85;6.10;;;-4.70;99.90;;;;;;5080536;28;20036;-63
2023/01/29 07:00:34;;;;;;;18.73;6.50;;;-4.60;99.90;;;;;;5079194;28;20492;-61
2023/01/29 07:03:00;;;;;;;18.38;6.90;;;-4.40;99.90;;;;;;5081204;28;20062;-65
2023/01/29 07:05:25;;;;;;;11.75;5.80;;;-4.20;99.90;;;;;;5080050;28;20487;-64
2023/01/29 07:07:51;;;;;;;15.35;5.80;;;-4.10;99.90;;;;;;5080063;28;20119;-65
2023/01/29 07:10:16;;;;;;;11.07;5.03;;;-4.10;99.90;;;;;;5078467;28;20032;-58
2023/01/29 07:12:42;;;;;;;12.00;5.78;;;-4.00;99.90;;;;;;5077867;28;20131;-59
2023/01/29 07:15:08;;;;;;;14.73;6.72;;;-3.90;99.90;;;;;;5081169;28;20036;-63
2023/01/29 07:17:34;;;;;;;15.00;7.40;;;-3.80;99.90;;;;;;5080887;28;20063;-66
2023/01/29 07:19:59;;;;;;;17.77;7.13;;;-3.70;99.90;;;;;;5080239;28;20989;-64
2023/01/29 07:22:25;;;;;;;18.05;7.80;;;-3.60;99.90;;;;;;5081964;28;20051;-65
2023/01/29 07:24:50;;;;;;;17.30;7.85;;;-3.50;99.90;;;;;;5080542;28;20071;-64
2023/01/29 07:27:16;;;;;;;14.98;7.43;;;-3.40;99.90;;;;;;5077742;28;20044;-64
2023/01/29 07:29:41;;;;;;;25.10;9.43;;;-3.20;99.90;;;;;;5083886;28;20047;-65
2023/01/29 07:32:07;;;;;;;18.27;8.02;;;-3.10;99.90;;;;;;5083228;28;20163;-64
2023/01/29 07:34:32;;;;;;;23.20;8.18;;;-3.10;99.90;;;;;;5083399;28;20281;-64
2023/01/29 07:36:58;;;;;;;16.70;8.23;;;-3.00;99.90;;;;;;5084379;28;20040;-65
2023/01/29 07:39:24;;;;;;;18.02;8.15;;;-2.90;99.90;;;;;;5084822;28;20267;-64
2023/01/29 07:41:49;;;;;;;17.27;8.05;;;-2.80;99.90;;;;;;5098048;28;20060;-65
2023/01/29 07:44:15;;;;;;;16.48;7.03;;;-2.80;99.90;;;;;;5083565;28;20042;-63
2023/01/29 07:46:41;;;;;;;13.57;6.80;;;-2.70;99.90;;;;;;5083232;28;20032;-63
2023/01/29 07:49:07;;;;;;;13.32;6.20;;;-2.70;99.90;;;;;;5083281;28;21493;-63
2023/01/29 07:51:32;;;;;;;17.58;6.93;;;-2.60;99.90;;;;;;5085004;28;20054;-65
2023/01/29 07:53:58;;;;;;;18.42;7.30;;;-2.60;99.90;;;;;;5081480;28;20052;-63
2023/01/29 07:56:24;;;;;;;13.07;6.45;;;-2.50;99.90;;;;;;5084920;28;20093;-63
2023/01/29 07:58:49;;;;;;;15.45;7.88;;;-2.50;99.90;;;;;;5084527;28;20040;-64
2023/01/29 08:01:15;;;;;;;15.02;6.80;;;-2.40;99.90;;;;;;5085419;28;20089;-65
2023/01/29 08:03:40;;;;;;;14.65;7.38;;;-2.40;99.90;;;;;;5084398;28;20036;-65
2023/01/29 08:06:06;;;;;;;17.30;8.30;;;-2.30;99.90;;;;;;5083668;28;20126;-64
2023/01/29 08:08:32;;;;;;;13.93;7.53;;;-2.30;99.90;;;;;;5084833;28;20074;-66
2023/01/29 08:11:04;;;;;;;13.77;8.00;;;-2.20;99.90;;;;;;5085154;28;20119;-65
2023/01/29 08:13:30;;;;;;;13.45;6.90;;;-2.20;99.90;;;;;;5087418;28;20054;-65
2023/01/29 08:16:03;;;;;;;16.25;7.05;;;-2.10;99.90;;;;;;5083798;28;20395;-66
2023/01/29 08:18:30;;;;;;;16.17;7.35;;;-2.10;99.90;;;;;;5084473;28;20056;-66
2023/01/29 08:21:02;;;;;;;16.23;6.88;;;-2.00;99.90;;;;;;5085783;28;20048;-65
2023/01/29 08:23:29;;;;;;;12.77;6.25;;;-2.00;99.90;;;;;;5087329;28;20040;-65
2023/01/29 08:25:54;;;;;;;18.27;7.63;;;-1.90;99.90;;;;;;5083199;28;20032;-66
2023/01/29 08:28:20;;;;;;;17.60;7.70;;;-1.90;99.90;;;;;;5087276;28;20565;-66
2023/01/29 08:30:46;;;;;;;19.77;7.95;;;-1.90;99.90;;;;;;5085961;28;20036;-64
2023/01/29 08:33:11;;;;;;;14.63;7.13;;;-1.80;99.90;;;;;;5086788;28;20038;-65
2023/01/29 08:35:37;;;;;;;15.73;6.55;;;-1.70;99.90;;;;;;5084379;28;20139;-65
2023/01/29 08:38:03;;;;;;;12.43;6.30;;;-1.70;99.90;;;;;;5086075;28;20039;-65
2023/01/29 08:40:32;;;;;;;14.18;6.75;;;-1.60;99.90;;;;;;5082560;28;20040;-64
2023/01/29 08:43:05;;;;;;;13.40;6.65;;;-1.60;99.90;;;;;;5078889;28;20037;-66
2023/01/29 08:45:34;;;;;;;14.38;6.65;;;-1.50;99.90;;;;;;5080511;28;20432;-65
2023/01/29 08:47:59;;;;;;;11.07;6.28;;;-1.40;99.90;;;;;;5101069;28;20546;-65
2023/01/29 08:50:25;;;;;;;14.30;6.15;;;-1.20;99.90;;;;;;5086078;28;20124;-64
2023/01/29 08:52:50;;;;;;;17.27;7.13;;;-1.10;99.90;;;;;;5082818;28;20404;-64
2023/01/29 08:55:16;;;;;;;15.30;7.55;;;-1.00;99.90;;;;;;5083665;28;20032;-64
2023/01/29 08:57:42;;;;;;;13.25;6.60;;;-0.90;99.90;;;;;;5083704;28;20385;-63
2023/01/29 09:00:09;;;;;;;12.52;6.30;;;-0.80;99.90;;;;;;5081427;28;20043;-63
2023/01/29 09:02:35;;;;;;;11.82;6.38;;;-0.70;99.90;;;;;;5079961;28;20516;-65
2023/01/29 09:05:01;;;;;;;10.20;5.57;;;-0.60;99.90;;;;;;5080580;28;20064;-65
2023/01/29 09:07:28;;;;;;;14.13;6.68;;;-0.50;99.90;;;;;;5081997;28;20055;-65
2023/01/29 09:09:54;;;;;;;13.57;6.10;;;-0.40;99.90;;;;;;5081777;28;20036;-63
2023/01/29 09:12:19;;;;;;;12.68;5.93;;;-0.20;99.90;;;;;;5083737;28;20067;-63
2023/01/29 09:14:45;;;;;;;10.98;6.43;;;-0.10;99.90;;;;;;5083386;28;20088;-65
2023/01/29 09:17:11;;;;;;;12.23;5.35;;;-0.10;99.90;;;;;;5082917;28;20683;-64
2023/01/29 09:19:36;;;;;;;10.80;5.53;;;0.10;99.90;;;;;;5083138;28;20049;-63
2023/01/29 09:22:02;;;;;;;9.38;5.20;;;0.20;99.90;;;;;;5084459;28;20628;-63
2023/01/29 09:24:28;;;;;;;11.60;5.97;;;0.20;99.90;;;;;;5084309;28;20476;-64
2023/01/29 09:26:54;;;;;;;14.40;6.32;;;0.30;99.90;;;;;;5080269;28;20035;-65
2023/01/29 09:29:19;;;;;;;15.23;6.70;;;0.40;99.90;;;;;;5081580;28;20101;-63
2023/01/29 09:31:45;;;;;;;16.27;6.20;;;0.40;99.90;;;;;;5082775;28;20124;-64
2023/01/29 09:34:11;;;;;;;15.93;6.50;;;0.40;99.90;;;;;;5084475;28;20040;-65
2023/01/29 09:36:36;;;;;;;11.35;5.85;;;0.30;99.90;;;;;;5084159;28;20487;-64
2023/01/29 09:39:02;;;;;;;16.30;7.15;;;0.40;99.90;;;;;;5083985;28;20063;-64
2023/01/29 09:41:35;;;;;;;10.95;5.65;;;0.30;99.90;;;;;;5070035;28;20044;-65
2023/01/29 09:44:03;;;;;;;8.50;4.63;;;0.30;99.90;;;;;;5081176;28;20539;-65
2023/01/29 09:46:41;;;;;;;12.50;4.55;;;0.20;99.90;;;;;;5083140;28;20442;-65
2023/01/29 09:49:11;;;;;;;8.75;4.20;;;0.10;99.90;;;;;;5081046;28;20035;-65
2023/01/29 09:51:42;;;;;;;7.80;3.85;;;0.10;99.90;;;;;;5081913;28;20040;-65
2023/01/29 09:54:20;;;;;;;8.25;4.13;;;0.10;99.90;;;;;;5080472;28;20070;-65
2023/01/29 09:56:49;;;;;;;6.05;3.70;;;0.20;99.90;;;;;;5082649;28;20412;-64
2023/01/29 09:59:17;;;;;;;7.95;3.53;;;0.20;99.90;;;;;;5080725;28;20044;-65
2023/01/29 10:02:01;;;;;;;6.00;3.30;;;0.20;99.90;;;;;;5080294;28;20039;-65
2023/01/29 10:05:03;;;;;;;6.20;3.30;;;0.20;99.90;;;;;;5080665;28;20067;-65
2023/01/29 10:07:51;;;;;;;5.85;3.45;;;0.20;99.90;;;;;;5084836;28;20054;-65
2023/01/29 10:10:17;;;;;;;6.88;3.80;;;0.40;99.90;;;;;;5085054;28;20085;-65
2023/01/29 10:12:50;;;;;;;6.78;3.35;;;0.40;99.90;;;;;;5081952;28;20032;-65
2023/01/29 10:15:22;;;;;;;9.55;3.75;;;0.50;99.90;;;;;;5080651;28;20043;-65
2023/01/29 10:18:18;;;;;;;7.85;2.63;;;0.60;99.90;;;;;;5083689;28;20047;-65
2023/01/29 10:21:03;;;;;;;7.18;3.30;;;0.80;99.90;;;;;;5077935;28;21260;-65
2023/01/29 10:23:54;;;;;;;9.48;3.80;;;0.90;99.90;;;;;;5082826;28;20051;-65
2023/01/29 10:26:25;;;;;;;7.03;3.53;;;1.10;99.90;;;;;;5080689;28;20560;-65
2023/01/29 10:28:54;;;;;;;6.78;3.90;;;1.20;99.90;;;;;;5082262;28;20625;-65
2023/01/29 10:31:33;;;;;;;6.50;3.75;;;1.30;99.90;;;;;;5079171;28;20527;-65
2023/01/29 10:34:12;;;;;;;9.80;3.15;;;1.20;99.90;;;;;;5083250;28;20109;-65
2023/01/29 10:36:46;;;;;;;11.15;3.55;;;1.20;99.90;;;;;;5079799;28;20040;-65
2023/01/29 10:39:24;;;;;;;6.32;3.70;;;1.30;99.90;;;;;;5079151;28;20047;-65
2023/01/29 10:42:11;;;;;;;8.10;4.25;;;1.40;99.90;;;;;;5078174;28;20731;-63
2023/01/29 10:45:01;;;;;;;7.88;3.22;;;1.20;99.90;;;;;;5080794;28;20396;-64
2023/01/29 10:48:05;;;;;;;5.88;3.50;;;1.40;99.90;;;;;;5081338;28;20153;-66
2023/01/29 10:50:46;;;;;;;7.28;3.65;;;1.40;99.90;;;;;;5082331;28;20071;-65
2023/01/29 10:53:42;;;;;;;10.50;3.67;;;1.50;99.90;;;;;;5082244;28;20039;-62
2023/01/29 10:56:21;;;;;;;9.40;3.80;;;1.50;99.90;;;;;;5080470;28;20108;-67
2023/01/29 10:59:00;;;;;;;9.05;4.80;;;1.50;99.90;;;;;;5079578;28;20044;-63
2023/01/29 11:01:26;;;;;;;7.60;3.08;;;1.40;99.90;;;;;;5080404;28;20140;-65
2023/01/29 11:03:57;;;;;;;12.90;3.67;;;1.40;99.90;;;;;;5080390;28;20123;-65
2023/01/29 11:06:41;;;;;;;7.30;2.97;;;1.50;99.90;;;;;;5080262;28;20052;-65
2023/01/29 11:09:28;;;;;;;9.20;3.92;;;1.40;99.90;;;;;;5077162;28;20040;-65
2023/01/29 11:12:23;;;;;;;7.78;3.55;;;1.20;99.90;;;;;;5081743;28;20632;-64
2023/01/29 11:14:54;;;;;;;8.10;2.92;;;1.20;99.90;;;;;;5079927;28;20040;-64
2023/01/29 11:17:23;;;;;;;6.00;3.75;;;1.20;99.90;;;;;;5081211;28;20032;-64
2023/01/29 11:19:50;;;;;;;6.43;3.22;;;1.20;99.90;;;;;;5080553;28;20392;-64
2023/01/29 11:22:18;;;;;;;6.53;3.63;;;1.20;99.90;;;;;;5081131;28;20519;-65
2023/01/29 11:24:45;;;;;;;7.93;3.85;;;1.20;99.90;;;;;;5081165;28;20062;-65
2023/01/29 11:27:22;;;;;;;7.95;3.83;;;1.20;99.90;;;;;;5080896;28;20048;-64
2023/01/29 11:29:49;;;;;;;9.32;4.45;;;1.10;99.90;;;;;;5080040;28;20118;-65
2023/01/29 11:32:20;;;;;;;8.02;4.18;;;1.20;99.90;;;;;;5081023;28;20110;-65
2023/01/29 11:35:15;;;;;;;12.75;4.20;;;1.30;99.90;;;;;;5078762;28;20633;-65
2023/01/29 11:37:43;;;;;;;7.82;4.22;;;1.40;99.90;;;;;;5082113;28;20070;-66
2023/01/29 11:40:18;;;;;;;7.68;4.20;;;1.40;99.90;;;;;;5081283;28;20059;-65
2023/01/29 11:42:45;;;;;;;14.00;4.03;;;1.40;99.90;;;;;;5082684;28;20032;-65
2023/01/29 11:45:38;;;;;;;9.25;3.83;;;1.40;99.90;;;;;;5082273;28;20036;-65
2023/01/29 11:48:04;;;;;;;12.80;3.50;;;1.40;99.90;;;;;;5080231;28;20127;-64
2023/01/29 11:50:32;;;;;;;8.30;4.18;;;1.40;99.90;;;;;;5082175;28;20642;-65
2023/01/29 11:53:01;;;;;;;17.08;4.68;;;1.30;99.90;;;;;;5082871;28;20074;-65
2023/01/29 11:55:32;;;;;;;12.43;4.53;;;1.30;99.90;;;;;;5081332;28;20040;-65
2023/01/29 11:58:10;;;;;;;8.38;4.10;;;1.30;99.90;;;;;;5082565;28;20073;-65
2023/01/29 12:00:39;;;;;;;10.45;4.20;;;1.40;99.90;;;;;;5081617;28;20028;-65
2023/01/29 12:03:21;;;;;;;8.05;4.10;;;1.40;99.90;;;;;;5082484;28;20078;-64
2023/01/29 12:06:07;;;;;;;9.02;4.95;;;1.50;99.90;;;;;;5081180;28;20032;-65
2023/01/29 12:08:37;;;;;;;10.52;4.50;;;1.40;99.90;;;;;;5080866;28;20461;-65
2023/01/29 12:11:10;;;;;;;10.98;4.15;;;1.50;99.90;;;;;;5081934;28;20438;-64
2023/01/29 12:13:36;;;;;;;7.32;4.38;;;1.60;99.90;;;;;;5081325;28;20039;-65
2023/01/29 12:16:19;;;;;;;8.77;4.78;;;1.40;99.90;;;;;;5085594;28;20044;-65
2023/01/29 12:18:52;;;;;;;9.25;4.60;;;1.40;99.90;;;;;;5085011;28;20036;-65
2023/01/29 12:21:37;;;;;;;11.77;5.60;;;1.40;99.90;;;;;;5085533;28;20028;-65
2023/01/29 12:24:32;;;;;;;10.23;4.80;;;1.40;99.90;;;;;;5083071;28;20529;-65
2023/01/29 12:27:37;;;;;;;11.57;5.53;;;1.50;99.90;;;;;;5084277;28;20056;-65
2023/01/29 12:30:24;;;;;;;11.52;5.50;;;1.50;99.90;;;;;;5086313;28;20070;-65
2023/01/29 12:32:55;;;;;;;10.48;4.50;;;1.40;99.90;;;;;;5083633;28;20036;-65
2023/01/29 12:35:42;;;;;;;9.93;5.55;;;1.60;99.90;;;;;;5084090;28;20032;-65
2023/01/29 12:38:13;;;;;;;;;;;1.50;99.90;;;;;;5082451;28;20036;-64
2023/01/29 12:40:49;;;;;;;10.95;4.82;;;1.60;99.90;;;;;;5084008;28;20387;-63
2023/01/29 12:43:17;;;;;;;12.90;4.78;;;1.60;99.90;;;;;;5082892;28;20043;-65
2023/01/29 12:45:46;;;;;;;8.68;4.93;;;1.60;99.90;;;;;;5080616;28;20563;-64
2023/01/29 12:48:33;;;;;;;8.77;5.00;;;1.50;99.90;;;;;;5085527;28;20510;-65
2023/01/29 12:51:12;;;;;;;13.07;5.25;;;1.40;99.90;;;;;;5084409;28;20053;-65
2023/01/29 12:53:46;;;;;;;11.23;4.82;;;1.40;99.90;;;;;;5081060;28;20759;-65
2023/01/29 12:56:18;;;;;;;15.15;5.20;;;1.40;99.90;;;;;;5081048;28;20079;-63
2023/01/29 12:58:46;;;;;;;13.15;5.50;;;1.50;99.90;;;;;;5083441;28;20067;-63
2023/01/29 13:01:20;;;;;;;9.07;4.05;;;1.40;99.90;;;;;;5080929;28;20038;-63
2023/01/29 13:03:57;;;;;;;9.25;4.40;;;1.40;99.90;;;;;;5082738;28;20493;-63
2023/01/29 13:06:32;;;;;;;10.38;3.90;;;1.60;99.90;;;;;;5080414;28;20052;-63
2023/01/29 13:09:02;;;;;;;8.57;5.05;;;1.50;99.90;;;;;;5081448;28;20097;-63
2023/01/29 13:11:42;;;;;;;8.20;4.30;;;1.40;99.90;;;;;;5098314;28;20048;-64
2023/01/29 13:14:30;;;;;;;8.45;4.10;;;1.50;99.90;;;;;;5081231;28;20047;-63
2023/01/29 13:17:11;;;;;;;14.65;4.45;;;1.50;99.90;;;;;;5082691;28;20043;-63
2023/01/29 13:19:44;;;;;;;8.90;4.50;;;1.50;99.90;;;;;;5082125;28;20040;-62
2023/01/29 13:22:23;;;;;;;9.90;3.75;;;1.50;99.90;;;;;;5082638;28;20543;-63
2023/01/29 13:24:50;;;;;;;9.15;4.20;;;1.50;99.90;;;;;;5083907;28;20078;-63
2023/01/29 13:27:44;;;;;;;8.75;4.40;;;1.50;99.90;;;;;;5084291;28;20040;-63
2023/01/29 13:30:24;;;;;;;6.60;3.72;;;1.50;99.90;;;;;;5080082;28;20128;-63
2023/01/29 13:32:54;;;;;;;7.18;3.90;;;1.40;99.90;;;;;;5080847;28;20031;-63
2023/01/29 13:35:22;;;;;;;4.78;3.30;;;1.30;99.90;;;;;;5081410;28;20043;-63
2023/01/29 13:37:52;;;;;;;10.05;5.00;;;1.30;99.90;;;;;;5099172;28;20094;-63
2023/01/29 13:40:25;;;;;;;9.27;4.22;;;1.30;99.90;;;;;;5081500;28;20040;-65